Time;durP1;ratioP1;P1;durP2;ratioP2;P2;SDS_P1;SDS_P2;PMS_P1;PMS_P2;Temp;Humidity;BMP_temperature;BMP_pressure;BME280_temperature;BME280_humidity;BME280_pressure;Samples;Min_cycle;Max_cycle;Signal;HPM_P1;HPM_P2
2021/07/09 00:01:15;;;;;;;;;5.33;5.33;;;;;19.77;51.67;102007.47;6177092;23;45448;-90
2021/07/09 00:03:41;;;;;;;;;4.50;4.50;;;;;19.79;51.58;102016.16;6177505;23;45618;-90
2021/07/09 00:06:07;;;;;;;;;6.50;5.50;;;;;19.78;51.64;102011.81;6177068;23;45285;-89
2021/07/09 00:08:33;;;;;;;;;6.00;6.00;;;;;19.75;51.62;102009.31;6177203;23;45278;-90
2021/07/09 00:10:58;;;;;;;;;5.00;3.75;;;;;19.75;51.61;102018.09;6174899;23;45308;-90
2021/07/09 00:13:24;;;;;;;;;6.25;4.00;;;;;19.71;51.62;102013.06;6177197;23;45342;-89
2021/07/09 00:15:49;;;;;;;;;6.25;4.75;;;;;19.71;51.74;102008.66;6177181;23;45388;-89
2021/07/09 00:18:14;;;;;;;;;4.00;4.00;;;;;19.70;51.57;102017.50;6176796;23;45299;-90
2021/07/09 00:20:40;;;;;;;;;4.00;4.00;;;;;19.69;51.68;102012.31;6175574;23;45502;-89
2021/07/09 00:23:06;;;;;;;;;3.50;3.50;;;;;19.71;51.87;102019.22;6177052;23;45278;-90
2021/07/09 00:25:31;;;;;;;;;3.00;3.00;;;;;19.70;52.06;102006.94;6175081;23;46777;-90
2021/07/09 00:27:56;;;;;;;;;7.00;5.00;;;;;19.74;52.14;102020.84;6176494;23;45446;-90
2021/07/09 00:30:22;;;;;;;;;4.00;4.00;;;;;19.70;52.10;102008.72;6176697;23;45276;-89
2021/07/09 00:32:47;;;;;;;;;3.00;3.00;;;;;19.69;51.99;102004.38;6175658;23;45228;-90
2021/07/09 00:35:13;;;;;;;;;3.33;2.67;;;;;19.69;52.08;102002.59;6176253;23;46372;-89
2021/07/09 00:37:38;;;;;;;;;3.50;3.25;;;;;19.69;51.83;102010.53;6174705;23;45434;-90
2021/07/09 00:40:06;;;;;;;;;5.50;4.25;;;;;19.67;52.24;102012.38;6177058;23;45922;-89
2021/07/09 00:42:32;;;;;;;;;4.00;3.75;;;;;19.67;51.67;102016.81;6177509;23;45317;-90
2021/07/09 00:44:58;;;;;;;;;4.25;3.50;;;;;19.67;52.00;102014.19;6178476;22;45599;-90
2021/07/09 00:47:24;;;;;;;;;5.00;5.00;;;;;19.63;52.20;102014.34;6178729;23;45312;-90
2021/07/09 00:49:49;;;;;;;;;5.00;5.00;;;;;19.66;52.36;102018.59;6179037;22;45179;-90
2021/07/09 00:52:18;;;;;;;;;5.00;4.50;;;;;19.61;52.53;102008.31;6179407;22;45359;-89
2021/07/09 00:54:43;;;;;;;;;5.75;4.00;;;;;19.60;51.95;102016.31;6178425;23;45327;-90
2021/07/09 00:57:10;;;;;;;;;4.50;4.50;;;;;19.59;51.96;102012.78;6176252;23;45971;-90
2021/07/09 00:59:36;;;;;;;;;4.75;4.00;;;;;19.57;52.17;102013.81;6178894;22;45388;-90
2021/07/09 01:02:01;;;;;;;;;4.25;4.25;;;;;19.57;52.00;102021.72;6177073;23;45188;-90
2021/07/09 01:04:27;;;;;;;;;4.00;4.00;;;;;19.56;52.56;102027.94;6176534;23;47216;-89
2021/07/09 01:06:53;;;;;;;;;3.67;3.00;;;;;19.51;52.35;102022.94;6178168;23;45255;-90
2021/07/09 01:09:18;;;;;;;;;7.25;4.50;;;;;19.52;52.20;102029.91;6178710;23;45244;-90
2021/07/09 01:11:48;;;;;;;;;5.00;5.00;;;;;19.50;52.36;102027.34;6176888;23;45305;-89
2021/07/09 01:14:14;;;;;;;;;3.50;3.00;;;;;19.52;52.13;102029.06;6178661;22;45549;-89
2021/07/09 01:16:39;;;;;;;;;4.25;4.25;;;;;19.48;52.20;102023.09;6178152;23;45394;-90
2021/07/09 01:19:07;;;;;;;;;3.75;2.75;;;;;19.47;52.32;102024.03;6176437;23;45282;-89
2021/07/09 01:21:33;;;;;;;;;4.25;4.25;;;;;19.44;52.53;102024.19;6179368;22;45223;-91
2021/07/09 01:24:04;;;;;;;;;4.25;4.25;;;;;19.45;52.10;102028.53;6178446;22;46288;-90
2021/07/09 01:26:30;;;;;;;;;3.25;3.25;;;;;19.43;52.55;102035.66;6178507;22;45370;-89
2021/07/09 01:28:56;;;;;;;;;4.00;4.00;;;;;19.40;52.58;102033.22;6178216;23;45621;-90
2021/07/09 01:31:21;;;;;;;;;4.75;4.75;;;;;19.39;52.73;102032.34;6178670;22;45175;-90
2021/07/09 01:33:47;;;;;;;;;5.75;5.00;;;;;19.36;52.38;102029.88;6178596;22;45318;-89
2021/07/09 01:36:13;;;;;;;;;6.00;6.00;;;;;19.38;52.44;102032.44;6178732;22;45347;-90
2021/07/09 01:38:38;;;;;;;;;5.25;5.00;;;;;19.34;52.68;102029.97;6177933;23;45383;-89
2021/07/09 01:41:04;;;;;;;;;8.50;7.00;;;;;19.36;52.87;102035.16;6178720;22;45206;-90
2021/07/09 01:43:30;;;;;;;;;5.25;4.75;;;;;19.34;52.85;102037.00;6178042;23;46088;-88
2021/07/09 01:45:55;;;;;;;;;6.00;3.50;;;;;19.31;52.94;102038.03;6176413;23;45396;-90
2021/07/09 01:48:21;;;;;;;;;6.50;5.50;;;;;19.32;52.86;102033.63;6176086;23;45306;-89
2021/07/09 01:50:46;;;;;;;;;5.25;5.25;;;;;19.29;52.81;102039.03;6178547;22;45340;-90
2021/07/09 01:53:12;;;;;;;;;6.50;6.50;;;;;19.27;53.29;102030.38;6176139;23;47600;-90
2021/07/09 01:55:38;;;;;;;;;5.00;5.00;;;;;19.27;53.03;102030.38;6177876;23;45347;-90
2021/07/09 01:58:03;;;;;;;;;5.00;5.00;;;;;19.31;53.28;102035.38;6178295;22;45225;-89
2021/07/09 02:00:29;;;;;;;;;5.50;4.50;;;;;19.30;52.93;102031.03;6176209;23;45390;-88
2021/07/09 02:02:54;;;;;;;;;8.75;6.00;;;;;19.26;53.40;102020.75;6177954;22;45394;-90
2021/07/09 02:05:23;;;;;;;;;6.00;4.75;;;;;19.26;53.26;102010.19;6178222;22;45229;-90
2021/07/09 02:07:54;;;;;;;;;5.75;4.50;;;;;19.26;53.60;102010.19;6178332;22;45324;-90
2021/07/09 02:10:21;;;;;;;;;6.50;5.50;;;;;19.25;53.63;102016.41;6177877;22;45340;-89
2021/07/09 02:12:50;;;;;;;;;6.75;5.00;;;;;19.27;53.77;102018.03;6177985;22;45282;-89
2021/07/09 02:15:17;;;;;;;;;8.00;6.00;;;;;19.27;53.85;102022.44;6178047;23;45264;-90
2021/07/09 02:17:43;;;;;;;;;4.75;4.50;;;;;19.25;53.89;102011.97;6177651;23;45459;-90
2021/07/09 02:20:12;;;;;;;;;8.75;6.75;;;;;19.25;53.81;102017.25;6176019;23;45425;-90
2021/07/09 02:22:38;;;;;;;;;5.75;5.75;;;;;19.23;53.87;102009.44;6177250;23;47182;-90
2021/07/09 02:25:05;;;;;;;;;5.00;5.00;;;;;19.20;53.72;102009.56;6177890;23;45305;-90
2021/07/09 02:27:43;;;;;;;;;5.75;5.75;;;;;19.19;54.06;102007.88;6175919;23;45416;-89
2021/07/09 02:30:11;;;;;;;;;5.75;5.75;;;;;19.18;53.98;102015.88;6177764;23;45258;-90
2021/07/09 02:32:40;;;;;;;;;8.00;5.00;;;;;19.18;54.33;102010.59;6177431;23;45345;-90
2021/07/09 02:35:08;;;;;;;;;5.00;4.75;;;;;19.15;53.89;102008.09;6175982;23;45345;-90
2021/07/09 02:37:33;;;;;;;;;8.00;6.00;;;;;19.14;54.32;102009.03;6177141;22;45268;-88
2021/07/09 02:39:58;;;;;;;;;6.50;6.50;;;;;19.11;54.21;102003.94;6178111;22;45213;-90
2021/07/09 02:42:24;;;;;;;;;8.25;6.25;;;;;19.09;54.33;101996.97;6175282;23;46504;-89
2021/07/09 02:44:50;;;;;;;;;6.75;5.25;;;;;19.09;54.11;102004.00;6177156;23;45308;-90
2021/07/09 02:47:15;;;;;;;;;6.75;6.75;;;;;19.06;54.26;101999.75;6175881;23;45326;-88
2021/07/09 02:49:40;;;;;;;;;6.25;5.00;;;;;19.02;54.15;102000.78;6176118;23;45511;-90
2021/07/09 02:52:07;;;;;;;;;10.00;6.00;;;;;19.02;54.30;102002.59;6177459;22;45304;-90
2021/07/09 02:54:32;;;;;;;;;7.50;6.75;;;;;18.99;54.77;102008.88;6177731;22;45179;-89
2021/07/09 02:56:58;;;;;;;;;4.50;4.50;;;;;18.95;54.63;102002.06;6175752;23;45301;-90
2021/07/09 02:59:23;;;;;;;;;5.50;5.00;;;;;18.92;54.63;101999.56;6176058;23;45325;-90
2021/07/09 03:01:49;;;;;;;;;7.75;6.00;;;;;18.88;54.61;101995.41;6177416;23;46093;-89
2021/07/09 03:04:14;;;;;;;;;5.75;5.25;;;;;18.87;54.71;102001.59;6177366;22;45198;-90
2021/07/09 03:06:41;;;;;;;;;5.50;5.25;;;;;18.83;55.04;101999.13;6175485;23;45277;-90
2021/07/09 03:09:07;;;;;;;;;8.00;6.00;;;;;18.83;55.36;102001.75;6176042;23;45488;-90
2021/07/09 03:11:34;;;;;;;;;6.75;6.25;;;;;18.77;55.48;101998.56;6175382;23;47330;-90
2021/07/09 03:14:00;;;;;;;;;6.50;6.50;;;;;18.80;55.30;102006.34;6176413;22;45409;-90
2021/07/09 03:16:26;;;;;;;;;8.25;6.00;;;;;18.75;55.23;101997.81;6175690;23;45281;-90
2021/07/09 03:18:51;;;;;;;;;5.25;5.25;;;;;18.73;55.37;101999.66;6175518;23;45191;-90
2021/07/09 03:21:17;;;;;;;;;7.00;6.50;;;;;18.71;55.34;102005.03;6175533;23;47071;-90
2021/07/09 03:23:42;;;;;;;;;6.25;6.25;;;;;18.69;55.24;101991.03;6177595;22;45403;-90
2021/07/09 03:26:07;;;;;;;;;6.00;6.00;;;;;18.64;55.46;101988.66;6175217;23;45408;-90
2021/07/09 03:28:33;;;;;;;;;4.75;4.25;;;;;18.63;55.70;101983.44;6177373;22;45470;-90
2021/07/09 03:30:58;;;;;;;;;6.75;5.25;;;;;18.62;55.70;101997.56;6175260;23;46931;-90
2021/07/09 03:33:24;;;;;;;;;7.50;6.00;;;;;18.59;55.89;101990.66;6175630;23;45261;-90
2021/07/09 03:35:52;;;;;;;;;8.00;6.50;;;;;18.59;55.98;101988.03;6177679;22;45316;-90
2021/07/09 03:38:18;;;;;;;;;7.00;7.00;;;;;18.52;55.65;101982.19;6177406;23;45304;-90
2021/07/09 03:40:44;;;;;;;;;6.00;4.75;;;;;18.53;56.14;101983.06;6177338;23;45315;-90
2021/07/09 03:43:09;;;;;;;;;5.00;5.00;;;;;18.49;56.15;101990.28;6175468;23;45561;-90
2021/07/09 03:45:34;;;;;;;;;8.00;6.75;;;;;18.46;56.00;101984.31;6176923;22;45339;-90
2021/07/09 03:48:00;;;;;;;;;8.75;8.75;;;;;18.42;56.22;101987.09;6177615;23;45252;-90
2021/07/09 03:50:25;;;;;;;;;8.75;7.75;;;;;18.38;56.02;101987.31;6175471;23;46824;-90
2021/07/09 03:52:51;;;;;;;;;7.50;5.75;;;;;18.35;56.38;101995.38;6175575;23;45262;-90
2021/07/09 03:55:16;;;;;;;;;8.75;8.25;;;;;18.30;56.57;101992.97;6175742;23;45290;-90
2021/07/09 03:57:42;;;;;;;;;6.00;6.00;;;;;18.28;56.07;101995.66;6177257;23;45326;-90
2021/07/09 04:00:10;;;;;;;;;7.25;7.00;;;;;18.27;56.30;101988.69;6175034;23;48062;-90
2021/07/09 04:02:36;;;;;;;;;6.75;6.25;;;;;18.22;56.36;101988.06;6177598;23;45393;-90
2021/07/09 04:05:02;;;;;;;;;7.75;6.75;;;;;18.23;56.84;101991.56;6175205;23;45339;-90
2021/07/09 04:07:27;;;;;;;;;8.50;8.25;;;;;18.19;56.70;101996.09;6175528;23;45446;-90
2021/07/09 04:09:52;;;;;;;;;10.75;8.25;;;;;18.16;56.64;101996.28;6175278;23;48164;-90
2021/07/09 04:12:18;;;;;;;;;7.00;7.00;;;;;18.16;56.81;102007.66;6177346;23;45228;-89
2021/07/09 04:14:43;;;;;;;;;8.00;7.25;;;;;18.10;56.96;101996.56;6175564;23;45413;-90
2021/07/09 04:17:09;;;;;;;;;7.50;7.00;;;;;18.10;57.02;102010.56;6177838;23;45426;-90
2021/07/09 04:19:34;;;;;;;;;9.50;8.75;;;;;18.07;56.93;102008.09;6176770;23;47228;-90
2021/07/09 04:22:00;;;;;;;;;9.25;8.00;;;;;18.06;57.06;102009.03;6179264;23;45369;-90
2021/07/09 04:24:26;;;;;;;;;7.50;7.50;;;;;18.03;57.28;102002.09;6177629;23;45282;-90
2021/07/09 04:26:51;;;;;;;;;10.00;8.00;;;;;18.01;57.08;102000.47;6177515;23;45469;-90
2021/07/09 04:29:16;;;;;;;;;9.00;8.75;;;;;17.99;56.83;102004.94;6176843;23;48128;-90
2021/07/09 04:31:42;;;;;;;;;7.75;6.25;;;;;17.98;57.48;102004.09;6176811;23;45246;-89
2021/07/09 04:34:07;;;;;;;;;6.50;6.50;;;;;17.94;57.19;101997.25;6179287;22;45269;-89
2021/07/09 04:36:33;;;;;;;;;8.25;7.50;;;;;17.96;57.92;102008.56;6177624;23;45312;-90
2021/07/09 04:38:58;;;;;;;;;9.00;7.00;;;;;17.93;58.00;102003.47;6178605;22;45210;-90
2021/07/09 04:41:24;;;;;;;;;8.25;8.00;;;;;17.96;57.84;102005.94;6177278;23;45243;-88
2021/07/09 04:43:49;;;;;;;;;8.00;6.75;;;;;17.95;57.79;102006.88;6179328;23;45254;-90
2021/07/09 04:46:15;;;;;;;;;9.25;6.00;;;;;17.94;57.93;102007.78;6177131;23;45222;-90
2021/07/09 04:48:40;;;;;;;;;9.00;8.00;;;;;17.98;57.91;102008.50;6179034;23;46075;-90
2021/07/09 04:51:06;;;;;;;;;10.25;9.00;;;;;18.00;58.52;102018.03;6178334;22;45433;-90
2021/07/09 04:53:31;;;;;;;;;9.00;9.00;;;;;17.98;58.32;102014.63;6179212;22;45254;-89
2021/07/09 04:55:57;;;;;;;;;9.00;9.00;;;;;18.02;58.62;102016.16;6177210;23;45438;-90
2021/07/09 04:58:22;;;;;;;;;9.25;8.75;;;;;18.04;58.05;102013.47;6178802;23;45370;-89
2021/07/09 05:00:48;;;;;;;;;7.75;7.75;;;;;18.08;58.55;102015.06;6178382;22;45530;-90
2021/07/09 05:03:14;;;;;;;;;8.00;8.00;;;;;18.12;58.46;102019.28;6177282;23;45309;-90
2021/07/09 05:05:40;;;;;;;;;8.50;8.25;;;;;18.14;58.45;102021.81;6179458;22;45359;-90
2021/07/09 05:08:06;;;;;;;;;6.50;5.75;;;;;18.19;58.80;102017.19;6178948;22;45600;-90
2021/07/09 05:10:32;;;;;;;;;9.25;8.25;;;;;18.22;58.44;102016.19;6176680;23;45308;-90
2021/07/09 05:12:57;;;;;;;;;9.25;8.00;;;;;18.26;58.45;102012.47;6176402;23;45903;-90
2021/07/09 05:15:23;;;;;;;;;7.75;7.25;;;;;18.29;58.97;102014.97;6176813;23;45595;-90
2021/07/09 05:17:48;;;;;;;;;8.50;8.50;;;;;18.35;59.39;102021.72;6174399;23;47086;-90
2021/07/09 05:20:14;;;;;;;;;10.00;8.00;;;;;18.37;59.59;102019.88;6175653;23;45359;-90
2021/07/09 05:22:39;;;;;;;;;11.50;8.50;;;;;18.42;59.30;102018.72;6168547;22;45412;-90
2021/07/09 05:25:05;;;;;;;;;7.50;7.50;;;;;18.43;59.37;102020.41;6179164;22;45260;-90
2021/07/09 05:27:31;;;;;;;;;12.00;10.00;;;;;18.48;59.24;102017.56;6176539;23;46961;-90
2021/07/09 05:29:57;;;;;;;;;11.25;9.00;;;;;18.56;59.92;102020.66;6177810;22;45288;-90
2021/07/09 05:32:25;;;;;;;;;8.25;7.50;;;;;18.56;59.59;102018.03;6178171;22;45381;-89
2021/07/09 05:34:54;;;;;;;;;8.00;7.50;;;;;18.63;59.53;102026.50;6175888;23;45397;-90
2021/07/09 05:37:21;;;;;;;;;9.00;9.00;;;;;18.67;59.11;102025.41;6176528;23;47033;-90
2021/07/09 05:39:47;;;;;;;;;9.67;8.33;;;;;18.73;59.09;102029.50;6176110;23;45620;-90
2021/07/09 05:42:13;;;;;;;;;9.50;9.50;;;;;18.74;58.90;102030.38;6178657;22;45240;-90
2021/07/09 05:44:40;;;;;;;;;13.50;9.50;;;;;18.76;58.87;102032.00;6176582;23;45593;-90
2021/07/09 05:47:05;;;;;;;;;9.25;8.25;;;;;18.79;58.37;102023.94;6177434;23;46423;-90
2021/07/09 05:49:30;;;;;;;;;9.50;8.25;;;;;18.88;58.72;102040.22;6177865;22;45383;-89
2021/07/09 05:51:56;;;;;;;;;10.67;10.00;;;;;18.88;58.35;102033.16;6178290;22;45211;-90
2021/07/09 05:54:21;;;;;;;;;9.25;9.25;;;;;18.93;58.54;102038.22;6178832;23;45329;-90
2021/07/09 05:56:47;;;;;;;;;9.67;8.67;;;;;18.95;58.31;102041.63;6175825;23;47180;-89
2021/07/09 05:59:12;;;;;;;;;9.00;9.00;;;;;18.99;58.34;102042.31;6176075;23;45202;-90
2021/07/09 06:01:38;;;;;;;;;12.50;12.50;;;;;19.03;58.48;102036.81;6176184;23;45193;-90
2021/07/09 06:04:04;;;;;;;;;11.25;10.00;;;;;19.03;58.15;102034.19;6176389;23;45527;-90
2021/07/09 06:06:29;;;;;;;;;11.00;9.00;;;;;19.06;57.92;102028.75;6176000;23;48398;-89
2021/07/09 06:08:55;;;;;;;;;9.00;8.33;;;;;19.13;58.37;102034.59;6178133;23;45213;-89
2021/07/09 06:11:20;;;;;;;;;15.67;9.67;;;;;19.18;58.13;102039.63;6175811;23;45839;-90
2021/07/09 06:13:46;;;;;;;;;11.67;9.67;;;;;19.21;58.14;102040.31;6178260;23;45225;-90
2021/07/09 06:16:11;;;;;;;;;8.33;6.67;;;;;19.29;58.51;102039.91;6177273;23;45319;-90
2021/07/09 06:18:37;;;;;;;;;10.00;9.67;;;;;19.32;58.51;102042.41;6177875;22;45297;-89
2021/07/09 06:21:02;;;;;;;;;11.67;9.00;;;;;19.35;58.46;102042.22;6178170;22;45221;-90
2021/07/09 06:23:28;;;;;;;;;10.25;9.00;;;;;19.39;58.30;102036.78;6157431;22;45300;-90
2021/07/09 06:25:54;;;;;;;;;10.33;10.33;;;;;19.45;58.41;102039.09;6175827;23;47752;-90
2021/07/09 06:28:19;;;;;;;;;8.67;8.67;;;;;19.50;58.04;102047.63;6177866;22;45370;-90
2021/07/09 06:30:45;;;;;;;;;8.67;8.67;;;;;19.53;58.15;102044.81;6175408;23;45341;-90
2021/07/09 06:33:12;;;;;;;;;12.33;10.00;;;;;19.56;57.96;102038.50;6178033;22;45067;-90
2021/07/09 06:35:38;;;;;;;;;9.67;7.00;;;;;19.62;57.93;102044.31;6176677;22;46015;-90
2021/07/09 06:38:05;;;;;;;;;8.00;7.67;;;;;19.62;57.48;102044.31;6177717;22;45245;-90
2021/07/09 06:40:31;;;;;;;;;9.00;9.00;;;;;19.70;57.76;102045.69;6177508;22;45240;-89
2021/07/09 06:42:56;;;;;;;;;10.00;10.00;;;;;19.69;57.68;102044.84;6176048;23;45431;-89
2021/07/09 06:45:21;;;;;;;;;15.33;10.00;;;;;19.73;57.76;102051.66;6175873;23;46231;-90
2021/07/09 06:47:48;;;;;;;;;9.00;9.00;;;;;19.76;57.48;102055.91;6176394;22;44793;-89
2021/07/09 06:50:16;;;;;;;;;11.00;9.75;;;;;19.81;57.48;102050.41;6177827;23;45356;-89
2021/07/09 06:52:43;;;;;;;;;10.25;10.25;;;;;19.83;57.07;102046.75;6178008;22;45246;-90
2021/07/09 06:55:09;;;;;;;;;10.33;8.00;;;;;19.88;56.95;102052.63;6177417;23;45310;-90
2021/07/09 06:57:35;;;;;;;;;9.50;9.50;;;;;19.93;56.82;102057.66;6177007;22;44746;-90
2021/07/09 07:00:00;;;;;;;;;12.67;10.33;;;;;19.90;57.22;102058.66;6175823;23;45187;-89
2021/07/09 07:02:25;;;;;;;;;8.25;8.00;;;;;19.92;56.83;102055.09;6177345;23;45392;-90
2021/07/09 07:04:51;;;;;;;;;10.00;8.00;;;;;19.94;56.91;102058.53;6175459;23;47384;-90
2021/07/09 07:07:17;;;;;;;;;8.33;6.67;;;;;19.93;56.49;102062.94;6175268;23;45325;-90
2021/07/09 07:09:42;;;;;;;;;16.00;12.00;;;;;19.92;56.40;102061.22;6175773;23;45258;-90
2021/07/09 07:12:08;;;;;;;;;11.33;11.00;;;;;19.94;56.62;102064.63;6177535;22;45372;-90
2021/07/09 07:14:35;;;;;;;;;13.50;11.00;;;;;19.92;56.77;102063.88;6175306;23;47894;-89
2021/07/09 07:17:01;;;;;;;;;10.00;10.00;;;;;19.96;56.93;102060.16;6176504;22;45246;-90
2021/07/09 07:19:26;;;;;;;;;12.33;11.00;;;;;20.00;56.71;102060.84;6175215;23;45173;-90
2021/07/09 07:21:52;;;;;;;;;13.33;12.00;;;;;20.07;56.42;102063.97;6147223;22;45275;-90
2021/07/09 07:24:18;;;;;;;;;10.33;9.33;;;;;20.10;56.50;102061.19;6175061;23;47046;-90
2021/07/09 07:26:44;;;;;;;;;12.00;11.33;;;;;20.15;56.40;102069.72;6176328;22;45301;-90
2021/07/09 07:29:09;;;;;;;;;4.33;4.33;;;;;20.12;55.69;102069.88;6177456;22;45361;-90
2021/07/09 07:31:35;;;;;;;;;11.33;10.67;;;;;20.10;56.08;102069.97;6174871;23;45598;-90
2021/07/09 07:34:00;;;;;;;;;8.67;8.67;;;;;20.11;56.31;102062.88;6175289;23;48267;-90
2021/07/09 07:36:27;;;;;;;;;9.00;8.67;;;;;20.18;56.18;102076.63;6177108;22;45324;-90
2021/07/09 07:38:52;;;;;;;;;10.75;10.00;;;;;20.20;56.42;102067.66;6176756;23;45585;-90
2021/07/09 07:41:19;;;;;;;;;9.33;8.67;;;;;20.25;55.92;102054.19;6177831;22;45656;-90
2021/07/09 07:43:46;;;;;;;;;15.75;12.75;;;;;20.31;55.79;102067.03;6175399;23;46908;-91
2021/07/09 07:46:13;;;;;;;;;12.00;9.50;;;;;20.32;56.09;102063.47;6174614;22;45293;-90
2021/07/09 07:48:38;;;;;;;;;16.00;13.25;;;;;20.38;55.85;102063.13;6176782;23;45242;-90
2021/07/09 07:51:04;;;;;;;;;10.67;10.33;;;;;20.41;55.53;102067.41;6176962;23;45274;-91
2021/07/09 07:53:34;;;;;;;;;11.25;9.00;;;;;20.48;55.95;102063.47;6174915;23;48047;-90
2021/07/09 07:56:00;;;;;;;;;14.75;11.75;;;;;20.52;55.68;102061.47;6176674;23;45421;-92
2021/07/09 07:58:25;;;;;;;;;12.67;12.67;;;;;20.58;55.29;102063.78;6176990;23;45329;-89
2021/07/09 08:00:50;;;;;;;;;15.67;14.00;;;;;20.62;55.01;102062.66;6176703;23;45504;-89
2021/07/09 08:03:16;;;;;;;;;13.00;11.33;;;;;20.68;55.12;102072.03;6173318;23;46954;-90
2021/07/09 08:05:41;;;;;;;;;15.50;15.00;;;;;20.71;55.51;102063.91;6175110;23;45354;-90
2021/07/09 08:08:08;;;;;;;;;13.75;13.00;;;;;20.70;54.93;102060.41;6176422;23;45447;-89
2021/07/09 08:10:33;;;;;;;;;11.67;11.67;;;;;20.73;55.38;102056.72;6177557;23;45638;-89
2021/07/09 08:12:58;;;;;;;;;15.33;14.33;;;;;20.74;55.48;102053.16;6176811;23;45915;-89
2021/07/09 08:15:24;;;;;;;;;11.33;11.33;;;;;20.75;55.10;102056.66;6176589;23;45229;-90
2021/07/09 08:17:49;;;;;;;;;11.33;11.33;;;;;20.79;55.45;102058.19;6176545;23;45198;-89
2021/07/09 08:20:16;;;;;;;;;13.67;12.00;;;;;20.86;54.96;102056.03;6174760;23;45285;-90
2021/07/09 08:22:42;;;;;;;;;12.00;12.00;;;;;20.90;54.80;102053.16;6174883;23;48086;-89
2021/07/09 08:25:08;;;;;;;;;9.67;9.33;;;;;20.89;53.97;102053.22;6172932;22;45317;-89
2021/07/09 08:27:40;;;;;;;;;11.00;9.33;;;;;20.93;53.93;102052.94;6176904;23;45439;-89
2021/07/09 08:30:07;;;;;;;;;11.00;9.00;;;;;20.88;54.08;102047.06;6174494;23;45290;-89
2021/07/09 08:32:33;;;;;;;;;10.33;10.33;;;;;20.91;54.20;102043.41;6176569;23;45367;-89
2021/07/09 08:34:59;;;;;;;;;10.67;9.00;;;;;20.93;54.14;102046.81;6176626;23;45817;-88
2021/07/09 08:37:24;;;;;;;;;9.67;9.00;;;;;20.98;54.08;102038.59;6175375;23;45319;-89
2021/07/09 08:39:50;;;;;;;;;14.67;11.67;;;;;20.99;53.74;102043.81;6175124;23;45428;-89
2021/07/09 08:42:15;;;;;;;;;12.00;8.00;;;;;20.99;53.15;102042.94;6175033;23;47080;-90
2021/07/09 08:44:41;;;;;;;;;10.00;10.00;;;;;20.98;53.28;102035.94;6176542;23;45312;-90
2021/07/09 08:47:06;;;;;;;;;4.75;3.50;;;;;21.03;53.38;102036.53;6176758;23;45328;-89
2021/07/09 08:49:32;;;;;;;;;12.33;10.00;;;;;21.05;53.76;102030.19;6176802;23;45374;-89
2021/07/09 08:51:58;;;;;;;;;13.33;12.00;;;;;21.07;53.19;102033.59;6174668;23;46198;-89
2021/07/09 08:54:23;;;;;;;;;11.00;9.33;;;;;21.08;53.34;102032.69;6174901;23;45202;-89
2021/07/09 08:56:51;;;;;;;;;13.33;9.33;;;;;21.08;53.10;102032.69;6176943;23;45553;-89
2021/07/09 08:59:17;;;;;;;;;11.67;11.33;;;;;21.11;53.04;102030.78;6176698;23;45274;-89
2021/07/09 09:01:47;;;;;;;;;11.67;10.33;;;;;21.17;52.75;102033.03;6174236;23;46934;-89
2021/07/09 09:04:13;;;;;;;;;17.00;10.67;;;;;21.18;52.80;102035.59;6175170;23;45002;-88
2021/07/09 09:06:38;;;;;;;;;10.67;9.33;;;;;21.19;52.69;102026.72;6175916;22;45245;-88
2021/07/09 09:09:17;;;;;;;;;15.00;10.67;;;;;21.22;52.63;102023.03;6176323;23;45269;-89
2021/07/09 09:12:15;;;;;;;;;10.67;10.67;;;;;21.30;52.98;102030.50;6175657;23;46349;-89
2021/07/09 09:14:46;;;;;;;;;12.67;10.00;;;;;21.34;52.90;102026.75;6176599;23;45552;-89
2021/07/09 09:17:28;;;;;;;;;9.33;8.33;;;;;21.41;52.68;102038.66;6178383;23;45283;-89
2021/07/09 09:20:15;;;;;;;;;9.00;9.00;;;;;21.52;53.31;102032.66;6176152;23;45244;-87
2021/07/09 09:22:49;;;;;;;;;9.00;9.00;;;;;21.60;52.65;102038.34;6177779;22;45569;-88
2021/07/09 09:25:29;;;;;;;;;12.25;10.75;;;;;21.65;52.69;102034.56;6178239;23;45150;-88
2021/07/09 09:27:58;;;;;;;;;10.33;10.33;;;;;21.72;52.36;102041.22;6176408;23;45314;-88
2021/07/09 09:30:24;;;;;;;;;7.67;7.67;;;;;21.71;52.26;102040.34;6174556;22;45277;-88
2021/07/09 09:32:51;;;;;;;;;8.33;6.67;;;;;21.75;51.35;102039.22;6177371;22;45737;-89
2021/07/09 09:35:27;;;;;;;;;8.67;8.67;;;;;21.74;51.91;102034.00;6178244;23;45245;-87
2021/07/09 09:38:04;;;;;;;;;10.00;9.00;;;;;21.74;52.03;102034.88;6175846;23;45321;-88
2021/07/09 09:40:33;;;;;;;;;8.00;8.00;;;;;21.79;51.88;102028.44;6175543;23;45540;-88
2021/07/09 09:43:05;;;;;;;;;6.67;6.67;;;;;21.80;51.37;102036.25;6175593;23;47238;-88
2021/07/09 09:45:31;;;;;;;;;7.67;7.67;;;;;21.84;51.33;102027.19;6178051;22;45218;-88
2021/07/09 09:48:05;;;;;;;;;11.33;10.33;;;;;21.90;50.82;102033.91;6177918;22;45139;-88
2021/07/09 09:50:31;;;;;;;;;8.67;8.67;;;;;21.88;51.60;102028.69;6178211;22;45303;-88
2021/07/09 09:52:56;;;;;;;;;11.67;9.00;;;;;21.88;51.08;102020.75;6177287;23;45158;-88
2021/07/09 09:55:32;;;;;;;;;8.33;8.00;;;;;21.92;50.74;102023.19;6177962;22;44653;-88
2021/07/09 09:58:18;;;;;;;;;13.33;10.00;;;;;21.93;50.69;102023.09;6177965;22;45408;-88
2021/07/09 10:00:49;;;;;;;;;13.00;11.33;;;;;21.93;50.99;102030.19;6177900;22;45419;-88
2021/07/09 10:03:15;;;;;;;;;10.00;8.67;;;;;21.96;50.92;102032.63;6177885;22;45357;-88
2021/07/09 10:05:43;;;;;;;;;8.00;7.33;;;;;21.99;50.79;102024.50;6175600;23;45511;-88
2021/07/09 10:08:13;;;;;;;;;9.00;7.00;;;;;22.02;50.14;102027.81;6177798;23;45502;-88
2021/07/09 10:10:40;;;;;;;;;7.00;7.00;;;;;22.05;50.60;102026.75;6178385;22;45271;-88
2021/07/09 10:13:06;;;;;;;;;7.67;6.00;;;;;22.09;50.33;102028.25;6175021;23;47393;-88
2021/07/09 10:15:33;;;;;;;;;8.00;6.00;;;;;22.08;50.58;102026.53;6175346;23;45302;-88
2021/07/09 10:17:59;;;;;;;;;7.00;6.33;;;;;22.15;50.05;102029.66;6177754;23;45360;-88
2021/07/09 10:20:25;;;;;;;;;8.00;6.00;;;;;22.13;50.06;102026.25;6177942;22;45150;-88
2021/07/09 10:22:52;;;;;;;;;7.00;6.00;;;;;22.17;49.87;102025.09;6175512;23;47084;-88
2021/07/09 10:25:19;;;;;;;;;8.00;6.00;;;;;22.16;49.61;102021.59;6177120;23;45361;-88
2021/07/09 10:27:46;;;;;;;;;6.33;6.33;;;;;22.18;49.85;102018.84;6178010;22;45430;-88
2021/07/09 10:30:13;;;;;;;;;7.00;6.00;;;;;22.23;49.38;102021.19;6177996;22;45414;-88
2021/07/09 10:32:44;;;;;;;;;7.33;5.33;;;;;22.29;49.33;102023.44;6175507;23;47985;-87
2021/07/09 10:35:31;;;;;;;;;5.67;5.33;;;;;22.34;49.46;102021.34;6176655;22;45272;-88
2021/07/09 10:38:14;;;;;;;;;6.67;6.00;;;;;22.37;49.55;102021.16;6175504;23;45222;-89
2021/07/09 10:40:40;;;;;;;;;5.67;5.67;;;;;22.35;48.75;102019.56;6173642;23;45562;-89
2021/07/09 10:43:06;;;;;;;;;8.67;6.33;;;;;22.33;48.66;102018.78;6174510;23;45336;-89
2021/07/09 10:45:32;;;;;;;;;6.00;6.00;;;;;22.38;49.23;102024.63;6174664;23;45218;-89
2021/07/09 10:47:57;;;;;;;;;7.00;6.67;;;;;22.44;49.11;102013.63;6173585;23;45237;-88
2021/07/09 10:50:25;;;;;;;;;6.67;6.33;;;;;22.51;49.16;102016.72;6173809;23;45507;-89
2021/07/09 10:52:52;;;;;;;;;11.33;8.00;;;;;22.59;49.27;102011.78;6174512;23;45288;-89
2021/07/09 10:55:27;;;;;;;;;7.33;6.67;;;;;22.66;48.83;102014.88;6169739;23;45745;-89
2021/07/09 10:58:08;;;;;;;;;7.33;6.33;;;;;22.71;48.95;102011.91;6175021;23;45516;-88
2021/07/09 11:00:43;;;;;;;;;9.67;9.00;;;;;22.71;49.00;102004.78;6173780;23;45232;-88
2021/07/09 11:03:09;;;;;;;;;7.67;7.00;;;;;22.78;48.50;102010.53;6175339;23;45359;-89
2021/07/09 11:05:43;;;;;;;;;5.67;5.67;;;;;22.85;48.89;102000.38;6175058;22;45205;-89
2021/07/09 11:08:30;;;;;;;;;6.33;6.33;;;;;22.90;48.36;101995.56;6174653;23;45493;-88
2021/07/09 11:11:06;;;;;;;;;5.67;5.67;;;;;22.95;49.13;101999.63;6174484;23;45474;-88
2021/07/09 11:13:40;;;;;;;;;8.00;7.00;;;;;23.04;48.64;101997.25;6172720;23;48165;-88
2021/07/09 11:16:24;;;;;;;;;8.33;6.00;;;;;23.11;47.55;101992.38;6173822;23;45403;-89
2021/07/09 11:19:07;;;;;;;;;6.33;5.67;;;;;23.12;48.48;101992.28;6175404;23;45218;-88
2021/07/09 11:21:33;;;;;;;;;6.00;5.33;;;;;23.17;47.80;101982.19;6175943;22;45193;-89